sensor_id;sensor_type;location;lat;lon;timestamp;P1;durP1;ratioP1;P2;durP2;ratioP2
489;SDS011;231;48.120;11.576;2023-08-24T00:02:09;7.47;;;7.07;;
489;SDS011;231;48.120;11.576;2023-08-24T00:04:37;7.73;;;7.33;;
489;SDS011;231;48.120;11.576;2023-08-24T00:07:04;7.63;;;7.23;;
489;SDS011;231;48.120;11.576;2023-08-24T00:09:31;9.17;;;8.67;;
489;SDS011;231;48.120;11.576;2023-08-24T00:11:58;9.47;;;8.97;;
489;SDS011;231;48.120;11.576;2023-08-24T00:14:24;8.60;;;8.10;;
489;SDS011;231;48.120;11.576;2023-08-24T00:16:51;8.53;;;8.07;;
489;SDS011;231;48.120;11.576;2023-08-24T00:19:20;9.13;;;8.63;;
489;SDS011;231;48.120;11.576;2023-08-24T00:21:46;7.93;;;7.57;;
489;SDS011;231;48.120;11.576;2023-08-24T00:24:14;8.50;;;7.80;;
489;SDS011;231;48.120;11.576;2023-08-24T00:26:40;8.33;;;7.90;;
489;SDS011;231;48.120;11.576;2023-08-24T00:29:07;8.23;;;7.80;;
489;SDS011;231;48.120;11.576;2023-08-24T00:31:34;8.23;;;7.83;;
489;SDS011;231;48.120;11.576;2023-08-24T00:34:01;11.10;;;8.67;;
489;SDS011;231;48.120;11.576;2023-08-24T00:36:29;11.07;;;8.63;;
489;SDS011;231;48.120;11.576;2023-08-24T00:38:56;9.20;;;8.70;;
489;SDS011;231;48.120;11.576;2023-08-24T00:41:23;12.53;;;8.50;;
489;SDS011;231;48.120;11.576;2023-08-24T00:43:50;12.33;;;8.90;;
489;SDS011;231;48.120;11.576;2023-08-24T00:46:17;8.90;;;8.40;;
489;SDS011;231;48.120;11.576;2023-08-24T00:48:44;10.27;;;9.70;;
489;SDS011;231;48.120;11.576;2023-08-24T00:51:11;8.90;;;8.40;;
489;SDS011;231;48.120;11.576;2023-08-24T00:53:39;9.53;;;9.03;;
489;SDS011;231;48.120;11.576;2023-08-24T00:56:06;15.37;;;9.77;;
489;SDS011;231;48.120;11.576;2023-08-24T00:58:35;8.87;;;8.37;;
489;SDS011;231;48.120;11.576;2023-08-24T01:01:04;9.30;;;8.80;;
489;SDS011;231;48.120;11.576;2023-08-24T01:03:31;10.70;;;10.03;;
489;SDS011;231;48.120;11.576;2023-08-24T01:05:58;10.60;;;10.00;;
489;SDS011;231;48.120;11.576;2023-08-24T01:08:25;9.87;;;9.37;;
489;SDS011;231;48.120;11.576;2023-08-24T01:10:57;15.83;;;12.43;;
489;SDS011;231;48.120;11.576;2023-08-24T01:13:30;12.03;;;11.43;;
489;SDS011;231;48.120;11.576;2023-08-24T01:16:08;11.83;;;11.23;;
489;SDS011;231;48.120;11.576;2023-08-24T01:18:39;13.67;;;12.97;;
489;SDS011;231;48.120;11.576;2023-08-24T01:21:08;13.83;;;13.13;;
489;SDS011;231;48.120;11.576;2023-08-24T01:23:36;13.33;;;12.63;;
489;SDS011;231;48.120;11.576;2023-08-24T01:26:12;11.53;;;10.93;;
489;SDS011;231;48.120;11.576;2023-08-24T01:28:43;13.90;;;13.20;;
489;SDS011;231;48.120;11.576;2023-08-24T01:31:11;14.07;;;13.37;;
489;SDS011;231;48.120;11.576;2023-08-24T01:33:40;12.13;;;11.53;;
489;SDS011;231;48.120;11.576;2023-08-24T01:36:07;13.07;;;12.37;;
489;SDS011;231;48.120;11.576;2023-08-24T01:38:36;12.10;;;11.50;;
489;SDS011;231;48.120;11.576;2023-08-24T01:41:07;12.57;;;11.93;;
489;SDS011;231;48.120;11.576;2023-08-24T01:43:39;12.90;;;12.20;;
489;SDS011;231;48.120;11.576;2023-08-24T01:46:09;12.33;;;11.73;;
489;SDS011;231;48.120;11.576;2023-08-24T01:48:40;12.47;;;11.87;;
489;SDS011;231;48.120;11.576;2023-08-24T01:51:08;13.07;;;12.37;;
489;SDS011;231;48.120;11.576;2023-08-24T01:53:36;14.13;;;13.43;;
489;SDS011;231;48.120;11.576;2023-08-24T01:56:07;12.63;;;11.97;;
489;SDS011;231;48.120;11.576;2023-08-24T01:58:35;13.80;;;13.10;;
489;SDS011;231;48.120;11.576;2023-08-24T02:01:03;13.10;;;12.40;;
489;SDS011;231;48.120;11.576;2023-08-24T02:03:30;14.13;;;13.43;;
489;SDS011;231;48.120;11.576;2023-08-24T02:05:57;16.33;;;15.53;;
489;SDS011;231;48.120;11.576;2023-08-24T02:08:24;16.10;;;15.30;;
489;SDS011;231;48.120;11.576;2023-08-24T02:10:51;18.47;;;17.57;;
489;SDS011;231;48.120;11.576;2023-08-24T02:13:18;16.83;;;15.97;;
489;SDS011;231;48.120;11.576;2023-08-24T02:15:45;17.13;;;16.23;;
489;SDS011;231;48.120;11.576;2023-08-24T02:18:13;16.50;;;15.70;;
489;SDS011;231;48.120;11.576;2023-08-24T02:20:40;15.13;;;14.33;;
489;SDS011;231;48.120;11.576;2023-08-24T02:23:07;15.50;;;14.70;;
489;SDS011;231;48.120;11.576;2023-08-24T02:25:34;14.80;;;14.00;;
489;SDS011;231;48.120;11.576;2023-08-24T02:28:00;15.57;;;14.77;;
489;SDS011;231;48.120;11.576;2023-08-24T02:30:27;15.20;;;14.40;;
489;SDS011;231;48.120;11.576;2023-08-24T02:32:54;14.23;;;13.53;;
489;SDS011;231;48.120;11.576;2023-08-24T02:35:22;14.57;;;13.87;;
489;SDS011;231;48.120;11.576;2023-08-24T02:37:49;15.53;;;14.73;;
489;SDS011;231;48.120;11.576;2023-08-24T02:40:16;13.97;;;13.27;;
489;SDS011;231;48.120;11.576;2023-08-24T02:42:43;16.23;;;15.43;;
489;SDS011;231;48.120;11.576;2023-08-24T02:45:10;15.83;;;15.03;;
489;SDS011;231;48.120;11.576;2023-08-24T02:47:36;14.73;;;13.97;;
489;SDS011;231;48.120;11.576;2023-08-24T02:50:04;16.17;;;15.37;;
489;SDS011;231;48.120;11.576;2023-08-24T02:52:33;14.97;;;14.17;;
489;SDS011;231;48.120;11.576;2023-08-24T02:55:00;14.90;;;14.10;;
489;SDS011;231;48.120;11.576;2023-08-24T02:57:27;16.23;;;15.43;;
489;SDS011;231;48.120;11.576;2023-08-24T02:59:54;13.97;;;13.27;;
489;SDS011;231;48.120;11.576;2023-08-24T03:02:21;14.20;;;13.50;;
489;SDS011;231;48.120;11.576;2023-08-24T03:04:48;14.80;;;14.03;;
489;SDS011;231;48.120;11.576;2023-08-24T03:07:14;15.30;;;14.50;;
489;SDS011;231;48.120;11.576;2023-08-24T03:09:42;16.30;;;15.50;;
489;SDS011;231;48.120;11.576;2023-08-24T03:12:09;18.03;;;17.13;;
489;SDS011;231;48.120;11.576;2023-08-24T03:14:36;17.73;;;16.83;;
489;SDS011;231;48.120;11.576;2023-08-24T03:17:03;17.03;;;16.13;;
489;SDS011;231;48.120;11.576;2023-08-24T03:19:30;20.20;;;19.20;;
489;SDS011;231;48.120;11.576;2023-08-24T03:21:57;17.53;;;16.63;;
489;SDS011;231;48.120;11.576;2023-08-24T03:24:24;15.90;;;15.10;;
489;SDS011;231;48.120;11.576;2023-08-24T03:26:52;17.17;;;16.30;;
489;SDS011;231;48.120;11.576;2023-08-24T03:29:19;17.80;;;16.90;;
489;SDS011;231;48.120;11.576;2023-08-24T03:31:45;17.67;;;16.77;;
489;SDS011;231;48.120;11.576;2023-08-24T03:34:12;20.00;;;19.00;;
489;SDS011;231;48.120;11.576;2023-08-24T03:36:39;19.30;;;18.30;;
489;SDS011;231;48.120;11.576;2023-08-24T03:39:06;18.83;;;17.90;;
489;SDS011;231;48.120;11.576;2023-08-24T03:41:32;17.63;;;16.73;;
489;SDS011;231;48.120;11.576;2023-08-24T03:44:01;18.00;;;17.10;;
489;SDS011;231;48.120;11.576;2023-08-24T03:46:28;17.70;;;16.80;;
489;SDS011;231;48.120;11.576;2023-08-24T03:48:54;17.60;;;16.70;;
489;SDS011;231;48.120;11.576;2023-08-24T03:51:21;19.43;;;18.43;;
489;SDS011;231;48.120;11.576;2023-08-24T03:53:48;16.97;;;16.10;;
489;SDS011;231;48.120;11.576;2023-08-24T03:56:15;19.47;;;18.47;;
489;SDS011;231;48.120;11.576;2023-08-24T03:58:42;18.10;;;17.20;;
489;SDS011;231;48.120;11.576;2023-08-24T04:01:11;17.40;;;16.50;;
489;SDS011;231;48.120;11.576;2023-08-24T04:03:38;18.60;;;17.70;;
489;SDS011;231;48.120;11.576;2023-08-24T04:06:04;18.00;;;17.10;;
489;SDS011;231;48.120;11.576;2023-08-24T04:08:32;19.07;;;18.07;;
489;SDS011;231;48.120;11.576;2023-08-24T04:10:59;19.20;;;18.20;;
489;SDS011;231;48.120;11.576;2023-08-24T04:13:26;17.97;;;17.07;;
489;SDS011;231;48.120;11.576;2023-08-24T04:15:53;18.47;;;17.57;;
489;SDS011;231;48.120;11.576;2023-08-24T04:18:21;18.50;;;17.60;;
489;SDS011;231;48.120;11.576;2023-08-24T04:20:48;18.77;;;17.63;;
489;SDS011;231;48.120;11.576;2023-08-24T04:23:14;20.60;;;19.60;;
489;SDS011;231;48.120;11.576;2023-08-24T04:25:41;17.80;;;16.90;;
489;SDS011;231;48.120;11.576;2023-08-24T04:28:08;17.90;;;17.00;;
489;SDS011;231;48.120;11.576;2023-08-24T04:30:36;18.80;;;17.87;;
489;SDS011;231;48.120;11.576;2023-08-24T04:33:04;20.23;;;19.23;;
489;SDS011;231;48.120;11.576;2023-08-24T04:35:34;19.27;;;18.27;;
489;SDS011;231;48.120;11.576;2023-08-24T04:38:02;16.33;;;15.53;;
489;SDS011;231;48.120;11.576;2023-08-24T04:40:29;17.90;;;17.00;;
489;SDS011;231;48.120;11.576;2023-08-24T04:42:55;17.23;;;16.33;;
489;SDS011;231;48.120;11.576;2023-08-24T04:45:22;18.70;;;17.77;;
489;SDS011;231;48.120;11.576;2023-08-24T04:47:49;17.63;;;16.73;;
489;SDS011;231;48.120;11.576;2023-08-24T04:50:16;16.40;;;15.60;;
489;SDS011;231;48.120;11.576;2023-08-24T04:52:44;16.90;;;16.03;;
489;SDS011;231;48.120;11.576;2023-08-24T04:55:11;16.00;;;15.20;;
489;SDS011;231;48.120;11.576;2023-08-24T04:57:38;16.03;;;15.23;;
489;SDS011;231;48.120;11.576;2023-08-24T05:00:07;15.83;;;15.03;;
489;SDS011;231;48.120;11.576;2023-08-24T05:02:37;16.10;;;15.27;;
489;SDS011;231;48.120;11.576;2023-08-24T05:05:04;16.60;;;15.80;;
489;SDS011;231;48.120;11.576;2023-08-24T05:07:32;15.23;;;14.43;;
489;SDS011;231;48.120;11.576;2023-08-24T05:10:00;15.87;;;15.07;;
489;SDS011;231;48.120;11.576;2023-08-24T05:12:28;16.20;;;15.40;;
489;SDS011;231;48.120;11.576;2023-08-24T05:14:55;15.87;;;15.07;;
489;SDS011;231;48.120;11.576;2023-08-24T05:17:22;19.40;;;17.03;;
489;SDS011;231;48.120;11.576;2023-08-24T05:19:51;16.30;;;15.50;;
489;SDS011;231;48.120;11.576;2023-08-24T05:22:19;15.30;;;14.50;;
489;SDS011;231;48.120;11.576;2023-08-24T05:24:46;15.33;;;14.53;;
489;SDS011;231;48.120;11.576;2023-08-24T05:27:14;14.93;;;14.13;;
489;SDS011;231;48.120;11.576;2023-08-24T05:29:41;16.67;;;15.83;;
489;SDS011;231;48.120;11.576;2023-08-24T05:32:08;14.83;;;14.03;;
489;SDS011;231;48.120;11.576;2023-08-24T05:34:35;15.57;;;14.77;;
489;SDS011;231;48.120;11.576;2023-08-24T05:37:02;15.80;;;15.00;;
489;SDS011;231;48.120;11.576;2023-08-24T05:39:28;14.37;;;13.67;;
489;SDS011;231;48.120;11.576;2023-08-24T05:41:55;15.30;;;14.50;;
489;SDS011;231;48.120;11.576;2023-08-24T05:44:23;16.73;;;14.93;;
489;SDS011;231;48.120;11.576;2023-08-24T05:46:50;16.50;;;15.70;;
489;SDS011;231;48.120;11.576;2023-08-24T05:49:17;16.27;;;15.47;;
489;SDS011;231;48.120;11.576;2023-08-24T05:51:44;15.47;;;14.67;;
489;SDS011;231;48.120;11.576;2023-08-24T05:54:11;15.97;;;15.17;;
489;SDS011;231;48.120;11.576;2023-08-24T05:56:38;16.23;;;15.43;;
489;SDS011;231;48.120;11.576;2023-08-24T05:59:05;16.10;;;15.30;;
489;SDS011;231;48.120;11.576;2023-08-24T06:01:33;16.20;;;15.40;;
489;SDS011;231;48.120;11.576;2023-08-24T06:04:03;17.97;;;17.07;;
489;SDS011;231;48.120;11.576;2023-08-24T06:06:30;18.50;;;17.60;;
489;SDS011;231;48.120;11.576;2023-08-24T06:08:58;18.50;;;17.60;;
489;SDS011;231;48.120;11.576;2023-08-24T06:11:24;19.03;;;16.83;;
489;SDS011;231;48.120;11.576;2023-08-24T06:13:51;20.80;;;17.07;;
489;SDS011;231;48.120;11.576;2023-08-24T06:16:19;16.27;;;15.47;;
489;SDS011;231;48.120;11.576;2023-08-24T06:18:47;16.53;;;15.73;;
489;SDS011;231;48.120;11.576;2023-08-24T06:21:15;16.53;;;15.73;;
489;SDS011;231;48.120;11.576;2023-08-24T06:23:42;16.10;;;15.30;;
489;SDS011;231;48.120;11.576;2023-08-24T06:26:09;16.10;;;15.30;;
489;SDS011;231;48.120;11.576;2023-08-24T06:28:36;15.30;;;14.50;;
489;SDS011;231;48.120;11.576;2023-08-24T06:31:04;19.63;;;13.40;;
489;SDS011;231;48.120;11.576;2023-08-24T06:33:33;13.80;;;13.10;;
489;SDS011;231;48.120;11.576;2023-08-24T06:36:01;13.70;;;13.00;;
489;SDS011;231;48.120;11.576;2023-08-24T06:38:30;13.83;;;13.13;;
489;SDS011;231;48.120;11.576;2023-08-24T06:40:57;10.93;;;10.33;;
489;SDS011;231;48.120;11.576;2023-08-24T06:43:24;12.33;;;11.73;;
489;SDS011;231;48.120;11.576;2023-08-24T06:45:51;11.20;;;10.60;;
489;SDS011;231;48.120;11.576;2023-08-24T06:48:18;13.13;;;10.83;;
489;SDS011;231;48.120;11.576;2023-08-24T06:50:45;11.90;;;11.30;;
489;SDS011;231;48.120;11.576;2023-08-24T06:53:13;10.53;;;9.97;;
489;SDS011;231;48.120;11.576;2023-08-24T06:55:40;10.47;;;9.80;;
489;SDS011;231;48.120;11.576;2023-08-24T06:58:07;10.70;;;10.10;;
489;SDS011;231;48.120;11.576;2023-08-24T07:00:34;11.30;;;10.70;;
489;SDS011;231;48.120;11.576;2023-08-24T07:03:01;9.60;;;9.10;;
489;SDS011;231;48.120;11.576;2023-08-24T07:05:28;10.50;;;9.83;;
489;SDS011;231;48.120;11.576;2023-08-24T07:07:55;10.97;;;10.37;;
489;SDS011;231;48.120;11.576;2023-08-24T07:10:23;10.20;;;9.70;;
489;SDS011;231;48.120;11.576;2023-08-24T07:12:50;9.40;;;8.90;;
489;SDS011;231;48.120;11.576;2023-08-24T07:15:16;10.10;;;9.60;;
489;SDS011;231;48.120;11.576;2023-08-24T07:17:43;9.70;;;9.20;;
489;SDS011;231;48.120;11.576;2023-08-24T07:20:10;9.33;;;8.83;;
489;SDS011;231;48.120;11.576;2023-08-24T07:22:38;9.97;;;9.47;;
489;SDS011;231;48.120;11.576;2023-08-24T07:25:05;9.83;;;9.33;;
489;SDS011;231;48.120;11.576;2023-08-24T07:27:34;10.00;;;9.50;;
489;SDS011;231;48.120;11.576;2023-08-24T07:30:02;9.93;;;9.43;;
489;SDS011;231;48.120;11.576;2023-08-24T07:32:31;9.03;;;8.53;;
489;SDS011;231;48.120;11.576;2023-08-24T07:34:58;9.43;;;8.93;;
489;SDS011;231;48.120;11.576;2023-08-24T07:37:25;10.20;;;9.70;;
489;SDS011;231;48.120;11.576;2023-08-24T07:39:52;9.97;;;9.47;;
489;SDS011;231;48.120;11.576;2023-08-24T07:42:19;10.10;;;9.60;;
489;SDS011;231;48.120;11.576;2023-08-24T07:44:48;7.80;;;7.40;;
489;SDS011;231;48.120;11.576;2023-08-24T07:47:14;9.77;;;9.27;;
489;SDS011;231;48.120;11.576;2023-08-24T07:49:41;7.73;;;7.33;;
489;SDS011;231;48.120;11.576;2023-08-24T07:52:09;9.20;;;8.70;;
489;SDS011;231;48.120;11.576;2023-08-24T07:54:37;9.73;;;8.40;;
489;SDS011;231;48.120;11.576;2023-08-24T07:57:04;9.20;;;8.70;;
489;SDS011;231;48.120;11.576;2023-08-24T07:59:31;10.00;;;9.50;;
489;SDS011;231;48.120;11.576;2023-08-24T08:01:59;7.97;;;7.57;;
489;SDS011;231;48.120;11.576;2023-08-24T08:04:26;7.80;;;7.40;;
489;SDS011;231;48.120;11.576;2023-08-24T08:06:53;9.50;;;9.00;;
489;SDS011;231;48.120;11.576;2023-08-24T08:09:20;8.83;;;8.33;;
489;SDS011;231;48.120;11.576;2023-08-24T08:11:47;8.73;;;8.23;;
489;SDS011;231;48.120;11.576;2023-08-24T08:14:14;8.43;;;7.97;;
489;SDS011;231;48.120;11.576;2023-08-24T08:16:41;7.93;;;7.53;;
489;SDS011;231;48.120;11.576;2023-08-24T08:19:09;7.73;;;7.33;;
489;SDS011;231;48.120;11.576;2023-08-24T08:21:36;7.90;;;7.50;;
489;SDS011;231;48.120;11.576;2023-08-24T08:24:03;9.07;;;8.57;;
489;SDS011;231;48.120;11.576;2023-08-24T08:26:30;9.50;;;9.00;;
489;SDS011;231;48.120;11.576;2023-08-24T08:28:57;8.17;;;7.73;;
489;SDS011;231;48.120;11.576;2023-08-24T08:31:24;8.13;;;7.73;;
489;SDS011;231;48.120;11.576;2023-08-24T08:33:50;8.73;;;8.23;;
489;SDS011;231;48.120;11.576;2023-08-24T08:36:19;8.80;;;8.30;;
489;SDS011;231;48.120;11.576;2023-08-24T08:38:45;7.80;;;7.40;;
489;SDS011;231;48.120;11.576;2023-08-24T08:41:12;8.03;;;7.63;;
489;SDS011;231;48.120;11.576;2023-08-24T08:43:40;8.67;;;8.17;;
489;SDS011;231;48.120;11.576;2023-08-24T08:46:08;8.17;;;7.77;;
489;SDS011;231;48.120;11.576;2023-08-24T08:48:36;8.20;;;7.80;;
489;SDS011;231;48.120;11.576;2023-08-24T08:51:06;8.10;;;7.70;;
489;SDS011;231;48.120;11.576;2023-08-24T08:53:34;7.80;;;7.40;;
489;SDS011;231;48.120;11.576;2023-08-24T08:56:02;8.10;;;7.70;;
489;SDS011;231;48.120;11.576;2023-08-24T08:58:30;7.40;;;7.00;;
489;SDS011;231;48.120;11.576;2023-08-24T09:00:57;8.20;;;7.80;;
489;SDS011;231;48.120;11.576;2023-08-24T09:03:28;8.27;;;7.87;;
489;SDS011;231;48.120;11.576;2023-08-24T09:05:57;8.27;;;7.87;;
489;SDS011;231;48.120;11.576;2023-08-24T09:08:23;7.10;;;6.70;;
489;SDS011;231;48.120;11.576;2023-08-24T09:10:54;7.67;;;7.27;;
489;SDS011;231;48.120;11.576;2023-08-24T09:13:21;7.90;;;7.50;;
489;SDS011;231;48.120;11.576;2023-08-24T09:15:48;7.20;;;6.80;;
489;SDS011;231;48.120;11.576;2023-08-24T09:18:18;8.83;;;8.33;;
489;SDS011;231;48.120;11.576;2023-08-24T09:20:46;8.77;;;8.27;;
489;SDS011;231;48.120;11.576;2023-08-24T09:23:19;8.03;;;7.63;;
489;SDS011;231;48.120;11.576;2023-08-24T09:25:46;8.23;;;7.80;;
489;SDS011;231;48.120;11.576;2023-08-24T09:28:15;8.47;;;7.93;;
489;SDS011;231;48.120;11.576;2023-08-24T09:30:49;8.80;;;8.30;;
489;SDS011;231;48.120;11.576;2023-08-24T09:33:20;7.00;;;6.60;;
489;SDS011;231;48.120;11.576;2023-08-24T09:35:51;7.97;;;7.57;;
489;SDS011;231;48.120;11.576;2023-08-24T09:38:19;7.10;;;6.70;;
489;SDS011;231;48.120;11.576;2023-08-24T09:40:50;8.00;;;7.23;;
489;SDS011;231;48.120;11.576;2023-08-24T09:43:19;7.47;;;7.07;;
489;SDS011;231;48.120;11.576;2023-08-24T09:45:49;7.10;;;6.67;;
489;SDS011;231;48.120;11.576;2023-08-24T09:48:16;8.23;;;7.83;;
489;SDS011;231;48.120;11.576;2023-08-24T09:50:44;7.70;;;7.30;;
489;SDS011;231;48.120;11.576;2023-08-24T09:53:13;7.13;;;6.73;;
489;SDS011;231;48.120;11.576;2023-08-24T09:55:44;7.50;;;7.10;;
489;SDS011;231;48.120;11.576;2023-08-24T09:58:14;7.07;;;6.67;;
489;SDS011;231;48.120;11.576;2023-08-24T10:00:43;7.50;;;7.10;;
489;SDS011;231;48.120;11.576;2023-08-24T10:03:12;6.67;;;6.27;;
489;SDS011;231;48.120;11.576;2023-08-24T10:05:44;6.70;;;6.30;;
489;SDS011;231;48.120;11.576;2023-08-24T10:08:11;8.43;;;6.80;;
489;SDS011;231;48.120;11.576;2023-08-24T10:10:40;7.03;;;6.63;;
489;SDS011;231;48.120;11.576;2023-08-24T10:13:10;6.70;;;6.23;;
489;SDS011;231;48.120;11.576;2023-08-24T10:15:45;6.83;;;6.43;;
489;SDS011;231;48.120;11.576;2023-08-24T10:18:14;6.77;;;6.37;;
489;SDS011;231;48.120;11.576;2023-08-24T10:20:42;5.57;;;5.27;;
489;SDS011;231;48.120;11.576;2023-08-24T10:23:10;6.97;;;6.57;;
489;SDS011;231;48.120;11.576;2023-08-24T10:25:39;6.57;;;6.17;;
489;SDS011;231;48.120;11.576;2023-08-24T10:28:07;7.50;;;7.10;;
489;SDS011;231;48.120;11.576;2023-08-24T10:30:34;7.47;;;7.07;;
489;SDS011;231;48.120;11.576;2023-08-24T10:33:04;9.23;;;7.50;;
489;SDS011;231;48.120;11.576;2023-08-24T10:35:31;6.80;;;6.40;;
489;SDS011;231;48.120;11.576;2023-08-24T10:37:59;7.10;;;6.70;;
489;SDS011;231;48.120;11.576;2023-08-24T10:40:36;7.87;;;7.47;;
489;SDS011;231;48.120;11.576;2023-08-24T10:43:04;7.70;;;7.30;;
489;SDS011;231;48.120;11.576;2023-08-24T10:48:24;7.10;;;6.70;;
489;SDS011;231;48.120;11.576;2023-08-24T10:53:46;7.43;;;7.07;;
489;SDS011;231;48.120;11.576;2023-08-24T10:56:17;7.50;;;7.10;;
489;SDS011;231;48.120;11.576;2023-08-24T10:58:45;7.00;;;6.60;;
489;SDS011;231;48.120;11.576;2023-08-24T11:01:15;6.87;;;6.47;;
489;SDS011;231;48.120;11.576;2023-08-24T11:03:49;5.83;;;5.53;;
489;SDS011;231;48.120;11.576;2023-08-24T11:06:17;8.60;;;6.43;;
489;SDS011;231;48.120;11.576;2023-08-24T11:08:45;6.80;;;5.10;;
489;SDS011;231;48.120;11.576;2023-08-24T11:11:19;5.90;;;5.53;;
489;SDS011;231;48.120;11.576;2023-08-24T11:16:43;6.70;;;6.30;;
489;SDS011;231;48.120;11.576;2023-08-24T11:19:13;6.97;;;6.43;;
489;SDS011;231;48.120;11.576;2023-08-24T11:21:40;5.60;;;5.30;;
489;SDS011;231;48.120;11.576;2023-08-24T11:24:08;6.23;;;5.90;;
489;SDS011;231;48.120;11.576;2023-08-24T11:26:39;6.90;;;6.50;;
489;SDS011;231;48.120;11.576;2023-08-24T11:29:07;6.53;;;6.13;;
489;SDS011;231;48.120;11.576;2023-08-24T11:31:33;7.50;;;7.10;;
489;SDS011;231;48.120;11.576;2023-08-24T11:34:01;9.77;;;7.60;;
489;SDS011;231;48.120;11.576;2023-08-24T11:36:30;7.43;;;7.03;;
489;SDS011;231;48.120;11.576;2023-08-24T11:38:58;7.30;;;6.90;;
489;SDS011;231;48.120;11.576;2023-08-24T11:41:25;8.67;;;6.30;;
489;SDS011;231;48.120;11.576;2023-08-24T11:43:58;5.23;;;4.93;;
489;SDS011;231;48.120;11.576;2023-08-24T11:46:27;7.33;;;5.90;;
489;SDS011;231;48.120;11.576;2023-08-24T11:48:56;5.23;;;4.93;;
489;SDS011;231;48.120;11.576;2023-08-24T11:51:24;11.77;;;5.43;;
489;SDS011;231;48.120;11.576;2023-08-24T11:53:52;6.20;;;5.90;;
489;SDS011;231;48.120;11.576;2023-08-24T11:56:19;9.23;;;5.77;;
489;SDS011;231;48.120;11.576;2023-08-24T11:58:48;7.60;;;6.63;;
489;SDS011;231;48.120;11.576;2023-08-24T12:01:16;5.30;;;5.00;;
489;SDS011;231;48.120;11.576;2023-08-24T12:03:44;5.77;;;5.33;;
489;SDS011;231;48.120;11.576;2023-08-24T12:06:11;7.67;;;5.17;;
489;SDS011;231;48.120;11.576;2023-08-24T12:08:39;6.03;;;4.73;;
489;SDS011;231;48.120;11.576;2023-08-24T12:11:15;9.00;;;5.50;;
489;SDS011;231;48.120;11.576;2023-08-24T12:13:43;13.97;;;6.13;;
489;SDS011;231;48.120;11.576;2023-08-24T12:16:13;6.37;;;6.00;;
489;SDS011;231;48.120;11.576;2023-08-24T12:18:49;5.17;;;4.87;;
489;SDS011;231;48.120;11.576;2023-08-24T12:21:17;7.60;;;6.43;;
489;SDS011;231;48.120;11.576;2023-08-24T12:23:54;5.33;;;5.03;;
489;SDS011;231;48.120;11.576;2023-08-24T12:26:23;6.67;;;5.40;;
489;SDS011;231;48.120;11.576;2023-08-24T12:28:50;5.60;;;5.30;;
489;SDS011;231;48.120;11.576;2023-08-24T12:31:18;7.57;;;5.33;;
489;SDS011;231;48.120;11.576;2023-08-24T12:33:45;9.20;;;5.73;;
489;SDS011;231;48.120;11.576;2023-08-24T12:36:23;6.90;;;6.40;;
489;SDS011;231;48.120;11.576;2023-08-24T12:38:50;5.87;;;5.47;;
489;SDS011;231;48.120;11.576;2023-08-24T12:41:17;6.13;;;5.37;;
489;SDS011;231;48.120;11.576;2023-08-24T12:43:45;8.63;;;6.10;;
489;SDS011;231;48.120;11.576;2023-08-24T12:46:12;8.13;;;5.17;;
489;SDS011;231;48.120;11.576;2023-08-24T12:48:39;5.67;;;5.37;;
489;SDS011;231;48.120;11.576;2023-08-24T12:51:06;5.40;;;4.90;;
489;SDS011;231;48.120;11.576;2023-08-24T12:53:33;6.20;;;4.90;;
489;SDS011;231;48.120;11.576;2023-08-24T12:56:00;5.27;;;4.90;;
489;SDS011;231;48.120;11.576;2023-08-24T12:58:27;9.50;;;5.77;;
489;SDS011;231;48.120;11.576;2023-08-24T13:00:55;7.97;;;5.60;;
489;SDS011;231;48.120;11.576;2023-08-24T13:03:22;11.50;;;5.97;;
489;SDS011;231;48.120;11.576;2023-08-24T13:05:48;6.37;;;5.60;;
489;SDS011;231;48.120;11.576;2023-08-24T13:08:15;6.43;;;5.50;;
489;SDS011;231;48.120;11.576;2023-08-24T13:10:42;7.40;;;6.50;;
489;SDS011;231;48.120;11.576;2023-08-24T13:13:09;6.77;;;6.37;;
489;SDS011;231;48.120;11.576;2023-08-24T13:15:36;10.60;;;5.90;;
489;SDS011;231;48.120;11.576;2023-08-24T13:18:04;11.13;;;6.10;;
489;SDS011;231;48.120;11.576;2023-08-24T13:20:31;8.03;;;7.63;;
489;SDS011;231;48.120;11.576;2023-08-24T13:22:58;8.17;;;6.00;;
489;SDS011;231;48.120;11.576;2023-08-24T13:25:24;6.17;;;5.87;;
489;SDS011;231;48.120;11.576;2023-08-24T13:27:51;7.83;;;5.73;;
489;SDS011;231;48.120;11.576;2023-08-24T13:30:21;8.27;;;6.40;;
489;SDS011;231;48.120;11.576;2023-08-24T13:32:48;7.33;;;6.67;;
489;SDS011;231;48.120;11.576;2023-08-24T13:35:16;20.60;;;7.50;;
489;SDS011;231;48.120;11.576;2023-08-24T13:37:43;5.97;;;5.67;;
489;SDS011;231;48.120;11.576;2023-08-24T13:40:10;7.93;;;6.13;;
489;SDS011;231;48.120;11.576;2023-08-24T13:42:37;11.93;;;6.83;;
489;SDS011;231;48.120;11.576;2023-08-24T13:45:04;6.67;;;6.10;;
489;SDS011;231;48.120;11.576;2023-08-24T13:47:32;11.87;;;6.83;;
489;SDS011;231;48.120;11.576;2023-08-24T13:49:58;18.10;;;6.10;;
489;SDS011;231;48.120;11.576;2023-08-24T13:52:27;8.07;;;5.20;;
489;SDS011;231;48.120;11.576;2023-08-24T13:54:54;5.87;;;5.47;;
489;SDS011;231;48.120;11.576;2023-08-24T13:57:20;7.30;;;6.50;;
489;SDS011;231;48.120;11.576;2023-08-24T13:59:47;9.93;;;6.47;;
489;SDS011;231;48.120;11.576;2023-08-24T14:02:14;8.27;;;5.80;;
489;SDS011;231;48.120;11.576;2023-08-24T14:04:41;10.07;;;6.17;;
489;SDS011;231;48.120;11.576;2023-08-24T14:07:08;10.67;;;6.90;;
489;SDS011;231;48.120;11.576;2023-08-24T14:09:36;11.83;;;7.00;;
489;SDS011;231;48.120;11.576;2023-08-24T14:12:03;7.23;;;6.83;;
489;SDS011;231;48.120;11.576;2023-08-24T14:14:29;9.77;;;5.97;;
489;SDS011;231;48.120;11.576;2023-08-24T14:16:56;9.40;;;7.53;;
489;SDS011;231;48.120;11.576;2023-08-24T14:19:23;8.20;;;5.47;;
489;SDS011;231;48.120;11.576;2023-08-24T14:21:50;7.03;;;6.63;;
489;SDS011;231;48.120;11.576;2023-08-24T14:24:17;7.80;;;6.20;;
489;SDS011;231;48.120;11.576;2023-08-24T14:26:45;8.60;;;7.40;;
489;SDS011;231;48.120;11.576;2023-08-24T14:29:12;11.20;;;7.03;;
489;SDS011;231;48.120;11.576;2023-08-24T14:31:39;6.20;;;5.87;;
489;SDS011;231;48.120;11.576;2023-08-24T14:34:06;6.90;;;6.50;;
489;SDS011;231;48.120;11.576;2023-08-24T14:36:33;6.43;;;5.97;;
489;SDS011;231;48.120;11.576;2023-08-24T14:39:00;9.33;;;6.30;;
489;SDS011;231;48.120;11.576;2023-08-24T14:41:28;9.50;;;5.90;;
489;SDS011;231;48.120;11.576;2023-08-24T14:43:56;6.67;;;6.27;;
489;SDS011;231;48.120;11.576;2023-08-24T14:46:23;7.00;;;6.40;;
489;SDS011;231;48.120;11.576;2023-08-24T14:48:50;9.67;;;6.97;;
489;SDS011;231;48.120;11.576;2023-08-24T14:51:20;6.83;;;6.37;;
489;SDS011;231;48.120;11.576;2023-08-24T14:53:47;14.20;;;7.83;;
489;SDS011;231;48.120;11.576;2023-08-24T14:56:14;9.40;;;6.13;;
489;SDS011;231;48.120;11.576;2023-08-24T14:58:41;13.60;;;7.60;;
489;SDS011;231;48.120;11.576;2023-08-24T15:01:09;11.23;;;6.90;;
489;SDS011;231;48.120;11.576;2023-08-24T15:03:36;7.43;;;7.03;;
489;SDS011;231;48.120;11.576;2023-08-24T15:06:03;7.73;;;6.87;;
489;SDS011;231;48.120;11.576;2023-08-24T15:08:31;9.53;;;7.40;;
489;SDS011;231;48.120;11.576;2023-08-24T15:10:59;12.63;;;6.20;;
489;SDS011;231;48.120;11.576;2023-08-24T15:13:27;7.27;;;6.60;;
489;SDS011;231;48.120;11.576;2023-08-24T15:15:55;6.70;;;6.30;;
489;SDS011;231;48.120;11.576;2023-08-24T15:18:25;9.13;;;6.80;;
489;SDS011;231;48.120;11.576;2023-08-24T15:20:53;8.80;;;6.93;;
489;SDS011;231;48.120;11.576;2023-08-24T15:23:20;8.40;;;6.20;;
489;SDS011;231;48.120;11.576;2023-08-24T15:25:49;13.47;;;6.63;;
489;SDS011;231;48.120;11.576;2023-08-24T15:28:16;9.40;;;6.90;;
489;SDS011;231;48.120;11.576;2023-08-24T15:30:43;8.10;;;6.90;;